sensor_id;sensor_type;location;lat;lon;timestamp;temperature;humidity
21592;DHT22;10958;50.892;3.992;2023-04-22T00:01:08;9.80;99.90
21592;DHT22;10958;50.892;3.992;2023-04-22T00:03:37;9.90;99.90
21592;DHT22;10958;50.892;3.992;2023-04-22T00:09:03;9.90;99.90
21592;DHT22;10958;50.892;3.992;2023-04-22T00:11:28;9.90;99.90
21592;DHT22;10958;50.892;3.992;2023-04-22T00:13:56;9.90;99.90
21592;DHT22;10958;50.892;3.992;2023-04-22T00:16:22;9.80;99.90
21592;DHT22;10958;50.892;3.992;2023-04-22T00:18:48;9.90;99.90
21592;DHT22;10958;50.892;3.992;2023-04-22T00:21:13;9.90;99.90
21592;DHT22;10958;50.892;3.992;2023-04-22T00:23:40;9.80;99.90
21592;DHT22;10958;50.892;3.992;2023-04-22T00:26:05;9.80;99.90
21592;DHT22;10958;50.892;3.992;2023-04-22T00:28:34;9.90;99.90
21592;DHT22;10958;50.892;3.992;2023-04-22T00:30:59;9.90;99.90
21592;DHT22;10958;50.892;3.992;2023-04-22T00:33:27;9.90;99.90
21592;DHT22;10958;50.892;3.992;2023-04-22T00:35:53;10.00;99.90
21592;DHT22;10958;50.892;3.992;2023-04-22T00:38:19;9.80;99.90
21592;DHT22;10958;50.892;3.992;2023-04-22T00:40:45;9.90;99.90
21592;DHT22;10958;50.892;3.992;2023-04-22T00:43:12;10.10;99.90
21592;DHT22;10958;50.892;3.992;2023-04-22T00:45:38;9.90;99.90
21592;DHT22;10958;50.892;3.992;2023-04-22T00:48:04;9.90;99.90
21592;DHT22;10958;50.892;3.992;2023-04-22T00:50:30;9.70;99.90
21592;DHT22;10958;50.892;3.992;2023-04-22T00:52:56;9.90;99.90
21592;DHT22;10958;50.892;3.992;2023-04-22T00:55:22;10.00;99.90
21592;DHT22;10958;50.892;3.992;2023-04-22T00:57:51;10.10;99.90
21592;DHT22;10958;50.892;3.992;2023-04-22T01:00:18;10.20;99.90
21592;DHT22;10958;50.892;3.992;2023-04-22T01:02:45;10.20;99.90
21592;DHT22;10958;50.892;3.992;2023-04-22T01:05:11;10.10;99.90
21592;DHT22;10958;50.892;3.992;2023-04-22T01:07:39;10.20;99.90
21592;DHT22;10958;50.892;3.992;2023-04-22T01:10:05;10.20;99.90
21592;DHT22;10958;50.892;3.992;2023-04-22T01:12:33;10.20;99.90
21592;DHT22;10958;50.892;3.992;2023-04-22T01:14:59;10.20;99.90
21592;DHT22;10958;50.892;3.992;2023-04-22T01:17:25;9.90;99.90
21592;DHT22;10958;50.892;3.992;2023-04-22T01:19:52;9.80;99.90
21592;DHT22;10958;50.892;3.992;2023-04-22T01:22:18;9.90;99.90
21592;DHT22;10958;50.892;3.992;2023-04-22T01:24:43;10.00;99.90
21592;DHT22;10958;50.892;3.992;2023-04-22T01:27:10;10.10;99.90
21592;DHT22;10958;50.892;3.992;2023-04-22T01:29:37;10.00;99.90
21592;DHT22;10958;50.892;3.992;2023-04-22T01:32:03;10.00;99.90
21592;DHT22;10958;50.892;3.992;2023-04-22T01:34:30;9.80;99.90
21592;DHT22;10958;50.892;3.992;2023-04-22T01:36:56;9.50;99.90
21592;DHT22;10958;50.892;3.992;2023-04-22T01:39:22;9.50;99.90
21592;DHT22;10958;50.892;3.992;2023-04-22T01:41:48;9.60;99.90
21592;DHT22;10958;50.892;3.992;2023-04-22T01:44:14;9.30;99.90
21592;DHT22;10958;50.892;3.992;2023-04-22T01:46:40;8.90;99.90
21592;DHT22;10958;50.892;3.992;2023-04-22T01:49:06;8.70;99.90
21592;DHT22;10958;50.892;3.992;2023-04-22T01:51:32;8.60;99.90
21592;DHT22;10958;50.892;3.992;2023-04-22T01:53:57;8.70;99.90
21592;DHT22;10958;50.892;3.992;2023-04-22T01:56:23;8.70;99.90
21592;DHT22;10958;50.892;3.992;2023-04-22T01:58:51;8.90;99.90
21592;DHT22;10958;50.892;3.992;2023-04-22T02:01:17;9.20;99.90
21592;DHT22;10958;50.892;3.992;2023-04-22T02:03:45;9.50;99.90
21592;DHT22;10958;50.892;3.992;2023-04-22T02:06:11;9.50;99.90
21592;DHT22;10958;50.892;3.992;2023-04-22T02:08:37;9.60;99.90
21592;DHT22;10958;50.892;3.992;2023-04-22T02:11:02;9.70;99.90
21592;DHT22;10958;50.892;3.992;2023-04-22T02:13:39;9.60;99.90
21592;DHT22;10958;50.892;3.992;2023-04-22T02:16:06;9.40;99.90
21592;DHT22;10958;50.892;3.992;2023-04-22T02:18:32;9.20;99.90
21592;DHT22;10958;50.892;3.992;2023-04-22T02:21:00;9.20;99.90
21592;DHT22;10958;50.892;3.992;2023-04-22T02:23:26;9.30;99.90
21592;DHT22;10958;50.892;3.992;2023-04-22T02:25:53;9.30;99.90
21592;DHT22;10958;50.892;3.992;2023-04-22T02:28:20;9.00;99.90
21592;DHT22;10958;50.892;3.992;2023-04-22T02:30:48;9.00;99.90
21592;DHT22;10958;50.892;3.992;2023-04-22T02:33:14;9.00;99.90
21592;DHT22;10958;50.892;3.992;2023-04-22T02:35:40;9.10;99.90
21592;DHT22;10958;50.892;3.992;2023-04-22T02:38:05;9.20;99.90
21592;DHT22;10958;50.892;3.992;2023-04-22T02:40:31;8.80;99.90
21592;DHT22;10958;50.892;3.992;2023-04-22T02:43:00;8.70;99.90
21592;DHT22;10958;50.892;3.992;2023-04-22T02:45:26;8.80;99.90
21592;DHT22;10958;50.892;3.992;2023-04-22T02:47:52;8.80;99.90
21592;DHT22;10958;50.892;3.992;2023-04-22T02:50:17;8.70;99.90
21592;DHT22;10958;50.892;3.992;2023-04-22T02:52:46;8.70;99.90
21592;DHT22;10958;50.892;3.992;2023-04-22T02:55:12;8.80;99.90
21592;DHT22;10958;50.892;3.992;2023-04-22T02:57:39;8.60;99.90
21592;DHT22;10958;50.892;3.992;2023-04-22T03:00:06;8.60;99.90
21592;DHT22;10958;50.892;3.992;2023-04-22T03:02:32;8.70;99.90
21592;DHT22;10958;50.892;3.992;2023-04-22T03:04:58;8.60;99.90
21592;DHT22;10958;50.892;3.992;2023-04-22T03:07:25;8.70;99.90
21592;DHT22;10958;50.892;3.992;2023-04-22T03:09:50;9.00;99.90
21592;DHT22;10958;50.892;3.992;2023-04-22T03:12:16;9.20;99.90
21592;DHT22;10958;50.892;3.992;2023-04-22T03:14:42;9.30;99.90
21592;DHT22;10958;50.892;3.992;2023-04-22T03:17:07;9.50;99.90
21592;DHT22;10958;50.892;3.992;2023-04-22T03:19:33;9.50;99.90
21592;DHT22;10958;50.892;3.992;2023-04-22T03:21:59;9.30;99.90
21592;DHT22;10958;50.892;3.992;2023-04-22T03:24:24;9.20;99.90
21592;DHT22;10958;50.892;3.992;2023-04-22T03:26:50;9.20;99.90
21592;DHT22;10958;50.892;3.992;2023-04-22T03:29:18;9.00;99.90
21592;DHT22;10958;50.892;3.992;2023-04-22T03:31:44;8.70;99.90
21592;DHT22;10958;50.892;3.992;2023-04-22T03:34:10;8.70;99.90
21592;DHT22;10958;50.892;3.992;2023-04-22T03:36:36;8.70;99.90
21592;DHT22;10958;50.892;3.992;2023-04-22T03:39:02;8.70;99.90
21592;DHT22;10958;50.892;3.992;2023-04-22T03:41:31;8.50;99.90
21592;DHT22;10958;50.892;3.992;2023-04-22T03:43:57;8.30;99.90
21592;DHT22;10958;50.892;3.992;2023-04-22T03:46:23;8.20;99.90
21592;DHT22;10958;50.892;3.992;2023-04-22T03:48:49;8.00;99.90
21592;DHT22;10958;50.892;3.992;2023-04-22T03:51:14;7.90;99.90
21592;DHT22;10958;50.892;3.992;2023-04-22T03:53:43;8.10;99.90
21592;DHT22;10958;50.892;3.992;2023-04-22T03:56:08;8.40;99.90
21592;DHT22;10958;50.892;3.992;2023-04-22T03:58:34;8.70;99.90
21592;DHT22;10958;50.892;3.992;2023-04-22T04:01:00;9.00;99.90
21592;DHT22;10958;50.892;3.992;2023-04-22T04:03:26;9.10;99.90
21592;DHT22;10958;50.892;3.992;2023-04-22T04:05:51;9.00;99.90
21592;DHT22;10958;50.892;3.992;2023-04-22T04:08:17;9.00;99.90
21592;DHT22;10958;50.892;3.992;2023-04-22T04:10:43;9.00;99.90
21592;DHT22;10958;50.892;3.992;2023-04-22T04:13:08;9.00;99.90
21592;DHT22;10958;50.892;3.992;2023-04-22T04:15:35;9.10;99.90
21592;DHT22;10958;50.892;3.992;2023-04-22T04:18:04;9.10;99.90
21592;DHT22;10958;50.892;3.992;2023-04-22T04:20:29;9.00;99.90
21592;DHT22;10958;50.892;3.992;2023-04-22T04:22:55;9.00;99.90
21592;DHT22;10958;50.892;3.992;2023-04-22T04:25:21;9.10;99.90
21592;DHT22;10958;50.892;3.992;2023-04-22T04:27:47;9.20;99.90
21592;DHT22;10958;50.892;3.992;2023-04-22T04:30:13;9.30;99.90
21592;DHT22;10958;50.892;3.992;2023-04-22T04:32:39;9.20;99.90
21592;DHT22;10958;50.892;3.992;2023-04-22T04:35:05;8.90;99.90
21592;DHT22;10958;50.892;3.992;2023-04-22T04:37:31;8.90;99.90
21592;DHT22;10958;50.892;3.992;2023-04-22T04:39:56;8.70;99.90
21592;DHT22;10958;50.892;3.992;2023-04-22T04:42:24;8.70;99.90
21592;DHT22;10958;50.892;3.992;2023-04-22T04:44:50;8.80;99.90
21592;DHT22;10958;50.892;3.992;2023-04-22T04:47:18;8.70;99.90
21592;DHT22;10958;50.892;3.992;2023-04-22T04:49:44;8.80;99.90
21592;DHT22;10958;50.892;3.992;2023-04-22T04:52:10;9.00;99.90
21592;DHT22;10958;50.892;3.992;2023-04-22T04:54:36;9.20;99.90
21592;DHT22;10958;50.892;3.992;2023-04-22T04:57:02;9.20;99.90
21592;DHT22;10958;50.892;3.992;2023-04-22T04:59:28;9.20;99.90
21592;DHT22;10958;50.892;3.992;2023-04-22T05:01:53;9.10;99.90
21592;DHT22;10958;50.892;3.992;2023-04-22T05:04:20;9.20;99.90
21592;DHT22;10958;50.892;3.992;2023-04-22T05:06:48;9.30;99.90
21592;DHT22;10958;50.892;3.992;2023-04-22T05:09:14;9.30;99.90
21592;DHT22;10958;50.892;3.992;2023-04-22T05:11:39;9.10;99.90
21592;DHT22;10958;50.892;3.992;2023-04-22T05:14:07;9.00;99.90
21592;DHT22;10958;50.892;3.992;2023-04-22T05:16:33;8.90;99.90
21592;DHT22;10958;50.892;3.992;2023-04-22T05:18:59;8.80;99.90
21592;DHT22;10958;50.892;3.992;2023-04-22T05:21:25;8.70;99.90
21592;DHT22;10958;50.892;3.992;2023-04-22T05:23:50;9.00;99.90
21592;DHT22;10958;50.892;3.992;2023-04-22T05:26:19;9.30;99.90
21592;DHT22;10958;50.892;3.992;2023-04-22T05:28:45;9.20;99.90
21592;DHT22;10958;50.892;3.992;2023-04-22T05:31:13;9.10;99.90
21592;DHT22;10958;50.892;3.992;2023-04-22T05:33:39;8.90;99.90
21592;DHT22;10958;50.892;3.992;2023-04-22T05:36:05;8.90;99.90
21592;DHT22;10958;50.892;3.992;2023-04-22T05:38:31;8.90;99.90
21592;DHT22;10958;50.892;3.992;2023-04-22T05:40:57;9.30;99.90
21592;DHT22;10958;50.892;3.992;2023-04-22T05:43:23;9.40;99.90
21592;DHT22;10958;50.892;3.992;2023-04-22T05:45:49;9.30;99.90
21592;DHT22;10958;50.892;3.992;2023-04-22T05:48:14;9.70;99.90
21592;DHT22;10958;50.892;3.992;2023-04-22T05:50:40;9.90;99.90
21592;DHT22;10958;50.892;3.992;2023-04-22T05:53:08;9.80;99.90
21592;DHT22;10958;50.892;3.992;2023-04-22T05:55:36;9.80;99.90
21592;DHT22;10958;50.892;3.992;2023-04-22T05:58:02;9.90;99.90
21592;DHT22;10958;50.892;3.992;2023-04-22T06:00:28;9.80;99.90
21592;DHT22;10958;50.892;3.992;2023-04-22T06:02:56;10.00;99.90
21592;DHT22;10958;50.892;3.992;2023-04-22T06:05:22;10.20;99.90
21592;DHT22;10958;50.892;3.992;2023-04-22T06:07:48;10.30;99.90
21592;DHT22;10958;50.892;3.992;2023-04-22T06:10:14;10.50;99.90
21592;DHT22;10958;50.892;3.992;2023-04-22T06:12:40;10.50;99.90
21592;DHT22;10958;50.892;3.992;2023-04-22T06:15:10;10.50;99.90
21592;DHT22;10958;50.892;3.992;2023-04-22T06:17:36;10.50;99.90
21592;DHT22;10958;50.892;3.992;2023-04-22T06:20:02;10.90;99.90
21592;DHT22;10958;50.892;3.992;2023-04-22T06:22:28;10.90;99.90
21592;DHT22;10958;50.892;3.992;2023-04-22T06:24:54;11.00;99.90
21592;DHT22;10958;50.892;3.992;2023-04-22T06:27:23;11.00;99.90
21592;DHT22;10958;50.892;3.992;2023-04-22T06:29:48;11.00;99.90
21592;DHT22;10958;50.892;3.992;2023-04-22T06:32:15;11.00;99.90
21592;DHT22;10958;50.892;3.992;2023-04-22T06:34:41;10.90;99.90
21592;DHT22;10958;50.892;3.992;2023-04-22T06:37:07;10.60;99.90
21592;DHT22;10958;50.892;3.992;2023-04-22T06:39:33;10.70;99.90
21592;DHT22;10958;50.892;3.992;2023-04-22T06:41:59;10.80;99.90
21592;DHT22;10958;50.892;3.992;2023-04-22T06:44:26;11.00;99.90
21592;DHT22;10958;50.892;3.992;2023-04-22T06:46:52;10.80;99.90
21592;DHT22;10958;50.892;3.992;2023-04-22T06:49:20;10.90;99.90
21592;DHT22;10958;50.892;3.992;2023-04-22T06:51:48;10.80;99.90
21592;DHT22;10958;50.892;3.992;2023-04-22T06:54:14;11.00;99.90
21592;DHT22;10958;50.892;3.992;2023-04-22T06:56:40;10.50;99.90
21592;DHT22;10958;50.892;3.992;2023-04-22T06:59:05;10.80;99.90
21592;DHT22;10958;50.892;3.992;2023-04-22T07:01:32;10.70;99.90
21592;DHT22;10958;50.892;3.992;2023-04-22T07:03:58;10.80;99.90
21592;DHT22;10958;50.892;3.992;2023-04-22T07:06:24;11.10;99.90
21592;DHT22;10958;50.892;3.992;2023-04-22T07:08:50;11.40;99.90
21592;DHT22;10958;50.892;3.992;2023-04-22T07:11:15;11.50;99.90
21592;DHT22;10958;50.892;3.992;2023-04-22T07:13:41;11.60;99.90
21592;DHT22;10958;50.892;3.992;2023-04-22T07:16:07;11.70;99.90
21592;DHT22;10958;50.892;3.992;2023-04-22T07:18:32;11.20;99.90
21592;DHT22;10958;50.892;3.992;2023-04-22T07:21:00;10.90;99.90
21592;DHT22;10958;50.892;3.992;2023-04-22T07:23:26;10.90;99.90
21592;DHT22;10958;50.892;3.992;2023-04-22T07:25:52;11.00;99.90
21592;DHT22;10958;50.892;3.992;2023-04-22T07:28:17;11.30;99.90
21592;DHT22;10958;50.892;3.992;2023-04-22T07:30:44;11.30;99.90
21592;DHT22;10958;50.892;3.992;2023-04-22T07:33:13;10.90;99.90
21592;DHT22;10958;50.892;3.992;2023-04-22T07:35:39;11.00;99.90
21592;DHT22;10958;50.892;3.992;2023-04-22T07:38:04;11.20;99.90
21592;DHT22;10958;50.892;3.992;2023-04-22T07:40:30;11.60;99.90
21592;DHT22;10958;50.892;3.992;2023-04-22T07:42:58;11.60;99.90
21592;DHT22;10958;50.892;3.992;2023-04-22T07:45:25;11.90;99.90
21592;DHT22;10958;50.892;3.992;2023-04-22T07:47:51;12.10;99.90
21592;DHT22;10958;50.892;3.992;2023-04-22T07:50:17;12.50;99.90
21592;DHT22;10958;50.892;3.992;2023-04-22T07:52:44;12.50;99.90
21592;DHT22;10958;50.892;3.992;2023-04-22T07:55:10;12.70;99.90
21592;DHT22;10958;50.892;3.992;2023-04-22T07:57:36;13.00;99.90
21592;DHT22;10958;50.892;3.992;2023-04-22T08:00:07;13.40;99.90
21592;DHT22;10958;50.892;3.992;2023-04-22T08:02:33;13.70;99.90
21592;DHT22;10958;50.892;3.992;2023-04-22T08:04:59;14.00;99.90
21592;DHT22;10958;50.892;3.992;2023-04-22T08:07:25;14.10;99.90
21592;DHT22;10958;50.892;3.992;2023-04-22T08:09:51;14.40;99.90
21592;DHT22;10958;50.892;3.992;2023-04-22T08:12:17;14.40;99.90
21592;DHT22;10958;50.892;3.992;2023-04-22T08:14:42;14.40;99.90
21592;DHT22;10958;50.892;3.992;2023-04-22T08:17:11;14.60;99.90
21592;DHT22;10958;50.892;3.992;2023-04-22T08:19:36;14.80;99.90
21592;DHT22;10958;50.892;3.992;2023-04-22T08:22:02;15.20;99.90
21592;DHT22;10958;50.892;3.992;2023-04-22T08:24:28;15.50;99.90
21592;DHT22;10958;50.892;3.992;2023-04-22T08:26:53;15.50;99.90
21592;DHT22;10958;50.892;3.992;2023-04-22T08:29:19;14.80;99.90
21592;DHT22;10958;50.892;3.992;2023-04-22T08:31:45;14.80;99.90
21592;DHT22;10958;50.892;3.992;2023-04-22T08:34:10;15.00;99.90
21592;DHT22;10958;50.892;3.992;2023-04-22T08:36:36;15.30;99.90
21592;DHT22;10958;50.892;3.992;2023-04-22T08:39:02;15.50;99.90
21592;DHT22;10958;50.892;3.992;2023-04-22T08:41:30;15.60;99.90
21592;DHT22;10958;50.892;3.992;2023-04-22T08:43:58;15.40;99.90
21592;DHT22;10958;50.892;3.992;2023-04-22T08:46:25;15.40;99.90
21592;DHT22;10958;50.892;3.992;2023-04-22T08:48:53;15.60;99.90
21592;DHT22;10958;50.892;3.992;2023-04-22T08:51:22;15.60;99.90
21592;DHT22;10958;50.892;3.992;2023-04-22T08:53:50;15.20;99.90
21592;DHT22;10958;50.892;3.992;2023-04-22T08:56:16;14.80;99.90
21592;DHT22;10958;50.892;3.992;2023-04-22T08:58:41;14.30;99.90
21592;DHT22;10958;50.892;3.992;2023-04-22T09:01:08;14.20;99.90
21592;DHT22;10958;50.892;3.992;2023-04-22T09:03:35;13.60;99.90
21592;DHT22;10958;50.892;3.992;2023-04-22T09:06:03;13.30;99.90
21592;DHT22;10958;50.892;3.992;2023-04-22T09:08:31;13.50;99.90
21592;DHT22;10958;50.892;3.992;2023-04-22T09:10:57;13.30;99.90
21592;DHT22;10958;50.892;3.992;2023-04-22T09:13:25;13.20;99.90
21592;DHT22;10958;50.892;3.992;2023-04-22T09:15:51;12.90;99.90
21592;DHT22;10958;50.892;3.992;2023-04-22T09:18:17;13.00;99.90
21592;DHT22;10958;50.892;3.992;2023-04-22T09:20:46;13.30;99.90
21592;DHT22;10958;50.892;3.992;2023-04-22T09:23:14;13.50;99.90
21592;DHT22;10958;50.892;3.992;2023-04-22T09:25:41;13.70;99.90
21592;DHT22;10958;50.892;3.992;2023-04-22T09:28:11;13.50;99.90
21592;DHT22;10958;50.892;3.992;2023-04-22T09:30:37;12.70;99.90
21592;DHT22;10958;50.892;3.992;2023-04-22T09:33:05;12.40;99.90
21592;DHT22;10958;50.892;3.992;2023-04-22T09:35:35;12.50;99.90
21592;DHT22;10958;50.892;3.992;2023-04-22T09:38:04;12.20;99.90
21592;DHT22;10958;50.892;3.992;2023-04-22T09:40:31;12.10;99.90
21592;DHT22;10958;50.892;3.992;2023-04-22T09:42:58;11.90;99.90
21592;DHT22;10958;50.892;3.992;2023-04-22T09:45:30;12.00;99.90
21592;DHT22;10958;50.892;3.992;2023-04-22T09:47:59;12.00;99.90
21592;DHT22;10958;50.892;3.992;2023-04-22T09:50:26;11.70;99.90
21592;DHT22;10958;50.892;3.992;2023-04-22T09:53:00;11.50;99.90
21592;DHT22;10958;50.892;3.992;2023-04-22T09:55:28;11.50;99.90
21592;DHT22;10958;50.892;3.992;2023-04-22T09:58:02;11.60;99.90
21592;DHT22;10958;50.892;3.992;2023-04-22T10:00:31;11.70;99.90
21592;DHT22;10958;50.892;3.992;2023-04-22T10:02:57;11.80;99.90
21592;DHT22;10958;50.892;3.992;2023-04-22T10:05:22;11.60;99.90
21592;DHT22;10958;50.892;3.992;2023-04-22T10:07:50;11.60;99.90
21592;DHT22;10958;50.892;3.992;2023-04-22T10:10:15;11.80;99.90
21592;DHT22;10958;50.892;3.992;2023-04-22T10:12:41;12.20;99.90
21592;DHT22;10958;50.892;3.992;2023-04-22T10:15:08;12.10;99.90
21592;DHT22;10958;50.892;3.992;2023-04-22T10:17:38;12.10;99.90
21592;DHT22;10958;50.892;3.992;2023-04-22T10:20:12;12.10;99.90
21592;DHT22;10958;50.892;3.992;2023-04-22T10:22:41;12.10;99.90
21592;DHT22;10958;50.892;3.992;2023-04-22T10:25:26;12.00;99.90
21592;DHT22;10958;50.892;3.992;2023-04-22T10:28:12;12.00;99.90
21592;DHT22;10958;50.892;3.992;2023-04-22T10:30:39;11.80;99.90
21592;DHT22;10958;50.892;3.992;2023-04-22T10:36:05;12.00;99.90
21592;DHT22;10958;50.892;3.992;2023-04-22T10:41:14;12.10;99.90
21592;DHT22;10958;50.892;3.992;2023-04-22T10:43:44;11.90;99.90
21592;DHT22;10958;50.892;3.992;2023-04-22T10:49:11;11.90;99.90
21592;DHT22;10958;50.892;3.992;2023-04-22T10:57:07;11.80;99.90
21592;DHT22;10958;50.892;3.992;2023-04-22T10:59:41;11.80;99.90
21592;DHT22;10958;50.892;3.992;2023-04-22T11:02:12;12.00;99.90
21592;DHT22;10958;50.892;3.992;2023-04-22T11:04:38;12.00;99.90
21592;DHT22;10958;50.892;3.992;2023-04-22T11:10:01;12.00;99.90
21592;DHT22;10958;50.892;3.992;2023-04-22T11:15:20;12.10;99.90
21592;DHT22;10958;50.892;3.992;2023-04-22T11:17:53;12.30;99.90
21592;DHT22;10958;50.892;3.992;2023-04-22T11:20:22;12.40;99.90
21592;DHT22;10958;50.892;3.992;2023-04-22T11:22:51;12.20;99.90
21592;DHT22;10958;50.892;3.992;2023-04-22T11:25:17;12.20;99.90
21592;DHT22;10958;50.892;3.992;2023-04-22T11:27:44;12.20;99.90
21592;DHT22;10958;50.892;3.992;2023-04-22T11:30:20;12.10;99.90
21592;DHT22;10958;50.892;3.992;2023-04-22T11:32:51;12.20;99.90
21592;DHT22;10958;50.892;3.992;2023-04-22T11:35:23;12.50;99.90
21592;DHT22;10958;50.892;3.992;2023-04-22T11:37:54;12.80;99.90
21592;DHT22;10958;50.892;3.992;2023-04-22T11:40:23;12.90;99.90
21592;DHT22;10958;50.892;3.992;2023-04-22T11:42:55;13.10;99.90
21592;DHT22;10958;50.892;3.992;2023-04-22T11:45:24;13.20;99.90
21592;DHT22;10958;50.892;3.992;2023-04-22T11:47:50;13.20;99.90
21592;DHT22;10958;50.892;3.992;2023-04-22T11:50:19;13.00;99.90
21592;DHT22;10958;50.892;3.992;2023-04-22T11:52:55;12.90;99.90
21592;DHT22;10958;50.892;3.992;2023-04-22T11:55:24;13.00;99.90
21592;DHT22;10958;50.892;3.992;2023-04-22T11:57:59;13.10;99.90
21592;DHT22;10958;50.892;3.992;2023-04-22T12:00:31;13.40;99.90
21592;DHT22;10958;50.892;3.992;2023-04-22T12:03:02;13.20;99.90
21592;DHT22;10958;50.892;3.992;2023-04-22T12:08:25;13.30;99.90
21592;DHT22;10958;50.892;3.992;2023-04-22T12:10:58;13.50;99.90
21592;DHT22;10958;50.892;3.992;2023-04-22T12:13:29;13.30;99.90
21592;DHT22;10958;50.892;3.992;2023-04-22T12:16:01;13.00;99.90
21592;DHT22;10958;50.892;3.992;2023-04-22T12:18:37;13.10;99.90
21592;DHT22;10958;50.892;3.992;2023-04-22T12:26:11;12.70;99.90
21592;DHT22;10958;50.892;3.992;2023-04-22T12:28:42;12.80;99.90
21592;DHT22;10958;50.892;3.992;2023-04-22T12:31:11;12.60;99.90
21592;DHT22;10958;50.892;3.992;2023-04-22T12:33:38;12.60;99.90
21592;DHT22;10958;50.892;3.992;2023-04-22T12:36:05;12.40;99.90
21592;DHT22;10958;50.892;3.992;2023-04-22T12:38:31;12.00;99.90
21592;DHT22;10958;50.892;3.992;2023-04-22T12:40:58;11.80;99.90
21592;DHT22;10958;50.892;3.992;2023-04-22T12:43:24;11.80;99.90
21592;DHT22;10958;50.892;3.992;2023-04-22T12:45:51;11.90;99.90
21592;DHT22;10958;50.892;3.992;2023-04-22T12:48:16;11.90;99.90
21592;DHT22;10958;50.892;3.992;2023-04-22T12:50:42;11.80;99.90
21592;DHT22;10958;50.892;3.992;2023-04-22T12:53:08;11.80;99.90
21592;DHT22;10958;50.892;3.992;2023-04-22T12:55:34;11.90;99.90
21592;DHT22;10958;50.892;3.992;2023-04-22T12:58:01;12.00;99.90
21592;DHT22;10958;50.892;3.992;2023-04-22T13:00:27;12.00;99.90
21592;DHT22;10958;50.892;3.992;2023-04-22T13:02:53;12.20;99.90
21592;DHT22;10958;50.892;3.992;2023-04-22T13:05:19;12.10;99.90
21592;DHT22;10958;50.892;3.992;2023-04-22T13:07:45;11.90;99.90
21592;DHT22;10958;50.892;3.992;2023-04-22T13:10:13;11.80;99.90
21592;DHT22;10958;50.892;3.992;2023-04-22T13:12:40;11.70;99.90
21592;DHT22;10958;50.892;3.992;2023-04-22T13:15:07;11.70;99.90
21592;DHT22;10958;50.892;3.992;2023-04-22T13:17:33;11.80;99.90
21592;DHT22;10958;50.892;3.992;2023-04-22T13:20:03;11.80;99.90
21592;DHT22;10958;50.892;3.992;2023-04-22T13:22:29;11.80;99.90
21592;DHT22;10958;50.892;3.992;2023-04-22T13:24:55;11.70;99.90
21592;DHT22;10958;50.892;3.992;2023-04-22T13:27:23;11.60;99.90
21592;DHT22;10958;50.892;3.992;2023-04-22T13:29:49;11.70;99.90
21592;DHT22;10958;50.892;3.992;2023-04-22T13:32:15;11.60;99.90
21592;DHT22;10958;50.892;3.992;2023-04-22T13:34:44;11.50;99.90
21592;DHT22;10958;50.892;3.992;2023-04-22T13:37:11;11.50;99.90
21592;DHT22;10958;50.892;3.992;2023-04-22T13:39:39;11.40;99.90
21592;DHT22;10958;50.892;3.992;2023-04-22T13:42:05;11.50;99.90
21592;DHT22;10958;50.892;3.992;2023-04-22T13:44:31;11.30;99.90
21592;DHT22;10958;50.892;3.992;2023-04-22T13:46:57;11.30;99.90
21592;DHT22;10958;50.892;3.992;2023-04-22T13:49:23;11.40;99.90
21592;DHT22;10958;50.892;3.992;2023-04-22T13:51:49;11.30;99.90
21592;DHT22;10958;50.892;3.992;2023-04-22T13:54:15;11.40;99.90
21592;DHT22;10958;50.892;3.992;2023-04-22T13:56:41;11.40;99.90
21592;DHT22;10958;50.892;3.992;2023-04-22T13:59:07;11.30;99.90
21592;DHT22;10958;50.892;3.992;2023-04-22T14:01:33;11.20;99.90
21592;DHT22;10958;50.892;3.992;2023-04-22T14:04:01;11.20;99.90
21592;DHT22;10958;50.892;3.992;2023-04-22T14:06:27;11.10;99.90
21592;DHT22;10958;50.892;3.992;2023-04-22T14:08:53;11.10;99.90
21592;DHT22;10958;50.892;3.992;2023-04-22T14:11:19;11.00;99.90
21592;DHT22;10958;50.892;3.992;2023-04-22T14:13:45;11.00;99.90
21592;DHT22;10958;50.892;3.992;2023-04-22T14:16:11;10.90;99.90
21592;DHT22;10958;50.892;3.992;2023-04-22T14:18:38;10.80;99.90
21592;DHT22;10958;50.892;3.992;2023-04-22T14:21:07;10.80;99.90
21592;DHT22;10958;50.892;3.992;2023-04-22T14:23:45;10.90;99.90
21592;DHT22;10958;50.892;3.992;2023-04-22T14:26:13;10.70;99.90
21592;DHT22;10958;50.892;3.992;2023-04-22T14:28:40;10.90;99.90
21592;DHT22;10958;50.892;3.992;2023-04-22T14:31:10;11.10;99.90
21592;DHT22;10958;50.892;3.992;2023-04-22T14:33:40;11.20;99.90
21592;DHT22;10958;50.892;3.992;2023-04-22T14:36:06;11.30;99.90
21592;DHT22;10958;50.892;3.992;2023-04-22T14:38:32;11.50;99.90
21592;DHT22;10958;50.892;3.992;2023-04-22T14:41:00;11.70;99.90
21592;DHT22;10958;50.892;3.992;2023-04-22T14:43:26;11.90;99.90
21592;DHT22;10958;50.892;3.992;2023-04-22T14:45:54;11.80;99.90
21592;DHT22;10958;50.892;3.992;2023-04-22T14:48:20;11.70;99.90
21592;DHT22;10958;50.892;3.992;2023-04-22T14:50:49;11.70;99.90
21592;DHT22;10958;50.892;3.992;2023-04-22T14:53:15;11.70;99.90
21592;DHT22;10958;50.892;3.992;2023-04-22T14:55:41;12.00;99.90
21592;DHT22;10958;50.892;3.992;2023-04-22T14:58:10;12.10;99.90
21592;DHT22;10958;50.892;3.992;2023-04-22T15:00:36;12.20;99.90
21592;DHT22;10958;50.892;3.992;2023-04-22T15:03:02;12.60;99.90
21592;DHT22;10958;50.892;3.992;2023-04-22T15:05:28;12.80;99.90
21592;DHT22;10958;50.892;3.992;2023-04-22T15:07:56;12.80;99.90
21592;DHT22;10958;50.892;3.992;2023-04-22T15:10:23;12.90;99.90
21592;DHT22;10958;50.892;3.992;2023-04-22T15:12:50;13.10;99.90
21592;DHT22;10958;50.892;3.992;2023-04-22T15:15:18;13.50;99.90
21592;DHT22;10958;50.892;3.992;2023-04-22T15:17:44;13.90;99.90
21592;DHT22;10958;50.892;3.992;2023-04-22T15:20:11;14.20;99.90
21592;DHT22;10958;50.892;3.992;2023-04-22T15:22:38;14.40;99.90
21592;DHT22;10958;50.892;3.992;2023-04-22T15:25:09;14.20;99.90
21592;DHT22;10958;50.892;3.992;2023-04-22T15:27:36;14.00;99.90
21592;DHT22;10958;50.892;3.992;2023-04-22T15:30:03;13.90;99.90
21592;DHT22;10958;50.892;3.992;2023-04-22T15:32:32;13.70;99.90
21592;DHT22;10958;50.892;3.992;2023-04-22T15:35:04;13.90;99.90
21592;DHT22;10958;50.892;3.992;2023-04-22T15:37:30;14.40;99.90
21592;DHT22;10958;50.892;3.992;2023-04-22T15:39:57;14.50;99.90
21592;DHT22;10958;50.892;3.992;2023-04-22T15:42:22;14.40;99.90
21592;DHT22;10958;50.892;3.992;2023-04-22T15:44:49;14.30;99.90
21592;DHT22;10958;50.892;3.992;2023-04-22T15:47:17;14.30;99.90
21592;DHT22;10958;50.892;3.992;2023-04-22T15:49:43;14.40;99.90
21592;DHT22;10958;50.892;3.992;2023-04-22T15:52:11;14.30;99.90
21592;DHT22;10958;50.892;3.992;2023-04-22T15:54:37;14.10;99.90
21592;DHT22;10958;50.892;3.992;2023-04-22T15:57:03;14.10;99.90
21592;DHT22;10958;50.892;3.992;2023-04-22T15:59:28;14.00;99.90
21592;DHT22;10958;50.892;3.992;2023-04-22T16:01:55;14.20;99.90
21592;DHT22;10958;50.892;3.992;2023-04-22T16:04:20;14.30;99.90